Time;durP1;ratioP1;P1;durP2;ratioP2;P2;SDS_P1;SDS_P2;PMS_P1;PMS_P2;Temp;Humidity;BMP_temperature;BMP_pressure;BME280_temperature;BME280_humidity;BME280_pressure;Samples;Min_cycle;Max_cycle;Signal;HPM_P1;HPM_P2
2023/07/10 00:04:25;;;;;;;17.88;11.30;;;;;;;20.12;90.23;100603.09;10449312;28;20052;-75
2023/07/10 00:09:28;;;;;;;17.40;10.27;;;;;;;20.16;90.28;100580.91;10444301;28;20060;-75
2023/07/10 00:14:34;;;;;;;18.00;11.50;;;;;;;20.01;89.95;100608.13;10442788;28;20040;-74
2023/07/10 00:19:37;;;;;;;16.73;10.73;;;;;;;19.93;89.25;100608.19;10444870;28;20547;-75
2023/07/10 00:24:40;;;;;;;13.98;10.48;;;;;;;19.82;89.64;100612.16;10441097;28;20508;-75
2023/07/10 00:29:44;;;;;;;19.73;11.95;;;;;;;19.90;88.92;100610.25;10441179;28;20041;-75
2023/07/10 00:34:47;;;;;;;18.10;12.25;;;;;;;19.71;90.17;100607.97;10447659;28;20078;-75
2023/07/10 00:39:51;;;;;;;17.73;14.40;;;;;;;19.34;92.75;100630.44;10439057;28;20536;-74
2023/07/10 00:45:00;;;;;;;24.67;17.05;;;;;;;19.23;94.67;100610.72;10433585;28;20054;-75
2023/07/10 00:50:13;;;;;;;25.63;18.27;;;;;;;19.21;95.20;100607.31;10432881;28;20051;-75
2023/07/10 00:55:22;;;;;;;28.50;20.20;;;;;;;19.54;95.30;100614.50;10432276;28;20052;-75
2023/07/10 01:00:28;;;;;;;28.77;21.23;;;;;;;19.44;95.40;100623.75;10428037;28;20424;-75
2023/07/10 01:05:33;;;;;;;31.42;21.42;;;;;;;19.16;95.98;100623.31;10425353;28;20056;-75
2023/07/10 01:10:36;;;;;;;31.08;23.00;;;;;;;19.19;95.82;100617.53;10433963;28;20053;-76
2023/07/10 01:15:40;;;;;;;33.40;23.25;;;;;;;19.50;95.47;100624.91;10432509;28;20423;-76
2023/07/10 01:20:47;;;;;;;26.52;21.08;;;;;;;19.52;95.72;100620.13;10442002;28;20047;-75
2023/07/10 01:25:56;;;;;;;26.52;21.48;;;;;;;19.51;94.64;100620.31;10421477;28;20421;-76
2023/07/10 01:30:59;;;;;;;30.08;23.25;;;;;;;19.47;95.29;100619.81;10430875;28;20052;-75
2023/07/10 01:36:03;;;;;;;29.45;24.77;;;;;;;19.47;95.92;100622.53;10440951;28;20052;-75
2023/07/10 01:41:21;;;;;;;39.47;27.17;;;;;;;19.45;95.69;100621.88;10433394;28;20107;-75
2023/07/10 01:46:26;;;;;;;35.08;27.90;;;;;;;19.45;96.22;100630.88;10434969;28;20044;-75
2023/07/10 01:51:29;;;;;;;40.95;29.98;;;;;;;19.39;96.97;100638.91;10432735;28;20045;-76
2023/07/10 01:56:34;;;;;;;40.83;31.70;;;;;;;19.35;97.63;100630.25;10436641;28;20046;-75
2023/07/10 02:01:37;;;;;;;40.53;29.42;;;;;;;19.09;98.73;100629.63;10448621;28;20512;-75
2023/07/10 02:06:44;;;;;;;39.15;30.70;;;;;;;19.21;98.30;100625.53;10436971;28;20049;-76
2023/07/10 02:11:48;;;;;;;48.13;30.00;;;;;;;19.02;98.25;100622.19;10440891;28;20072;-77
2023/07/10 02:16:53;;;;;;;45.25;31.98;;;;;;;19.28;97.67;100623.81;10420671;28;20509;-76
2023/07/10 02:21:56;;;;;;;50.47;32.03;;;;;;;19.17;97.46;100621.44;10432708;28;20233;-74
2023/07/10 02:27:02;;;;;;;51.92;32.35;;;;;;;19.04;97.67;100621.16;10447437;28;20055;-77
2023/07/10 02:32:06;;;;;;;50.53;33.97;;;;;;;19.11;97.15;100635.75;10444726;28;20045;-75
2023/07/10 02:37:09;;;;;;;45.85;32.45;;;;;;;18.67;99.47;100653.31;10441322;28;20128;-75
2023/07/10 02:42:13;;;;;;;45.17;30.27;;;;;;;18.97;97.18;100646.34;10435399;28;20037;-75
2023/07/10 02:47:16;;;;;;;45.30;33.15;;;;;;;19.29;96.21;100638.28;10442894;28;20049;-75
2023/07/10 02:52:19;;;;;;;47.60;32.42;;;;;;;19.50;95.33;100638.53;10444920;28;20128;-77
2023/07/10 02:57:23;;;;;;;48.63;32.78;;;;;;;19.38;95.19;100646.22;10443712;28;20051;-76
2023/07/10 03:02:26;;;;;;;51.92;33.80;;;;;;;19.28;94.68;100655.63;10444448;28;20414;-75
2023/07/10 03:07:29;;;;;;;52.65;33.72;;;;;;;19.18;94.94;100650.41;10428883;28;20045;-75
2023/07/10 03:12:33;;;;;;;50.13;33.97;;;;;;;19.34;95.07;100649.50;10435806;28;20059;-75
2023/07/10 03:17:36;;;;;;;53.58;35.83;;;;;;;19.01;96.18;100663.19;10442666;28;20045;-76
2023/07/10 03:22:39;;;;;;;55.97;37.88;;;;;;;18.83;96.49;100666.09;10439621;28;20072;-75
2023/07/10 03:27:43;;;;;;;54.63;35.13;;;;;;;18.51;97.16;100685.97;10443244;28;20056;-74
2023/07/10 03:32:46;;;;;;;54.08;37.17;;;;;;;18.54;97.28;100678.34;10429206;28;20057;-75
2023/07/10 03:37:49;;;;;;;57.03;35.40;;;;;;;18.58;95.33;100685.13;10436177;28;20069;-75
2023/07/10 03:42:53;;;;;;;56.25;35.20;;;;;;;18.78;93.81;100690.25;10443279;28;20052;-75
2023/07/10 03:47:56;;;;;;;54.83;33.92;;;;;;;18.48;94.18;100692.59;10439966;28;20103;-75
2023/07/10 03:52:59;;;;;;;62.38;36.22;;;;;;;18.57;94.05;100667.09;10442887;28;20060;-75
2023/07/10 03:58:19;;;;;;;66.88;38.83;;;;;;;18.64;94.20;100669.13;10429695;28;20084;-76
2023/07/10 04:03:24;;;;;;;63.40;35.45;;;;;;;18.64;93.73;100680.03;10451150;28;20037;-75
2023/07/10 04:08:29;;;;;;;66.88;39.25;;;;;;;18.94;92.82;100678.50;10445993;28;20084;-75
2023/07/10 04:13:33;;;;;;;71.30;38.55;;;;;;;18.92;91.75;100662.34;10441079;28;20060;-75
2023/07/10 04:18:39;;;;;;;59.25;35.20;;;;;;;18.68;92.72;100668.63;10444981;28;20037;-75
2023/07/10 04:23:42;;;;;;;50.25;30.23;;;;;;;18.87;93.11;100664.75;10427890;28;20045;-75
2023/07/10 04:28:47;;;;;;;52.17;31.52;;;;;;;18.58;92.41;100657.91;10437239;28;20524;-75
2023/07/10 04:33:50;;;;;;;54.17;34.10;;;;;;;18.83;91.13;100678.88;10438580;28;20072;-74
2023/07/10 04:38:53;;;;;;;58.15;36.15;;;;;;;18.92;91.85;100678.66;10436651;28;20045;-75
2023/07/10 04:43:58;;;;;;;56.22;32.33;;;;;;;18.65;92.52;100687.16;10441575;28;20814;-74
2023/07/10 04:49:00;;;;;;;53.75;29.75;;;;;;;18.93;91.78;100693.16;10433471;28;20374;-75
2023/07/10 04:54:03;;;;;;;44.45;28.55;;;;;;;18.30;92.81;100692.75;10436643;28;20042;-75
2023/07/10 04:59:08;;;;;;;52.67;31.63;;;;;;;18.60;91.35;100698.56;10441856;28;20032;-75
2023/07/10 05:04:11;;;;;;;43.45;28.50;;;;;;;18.50;91.29;100703.31;10438463;28;20084;-76
2023/07/10 05:09:14;;;;;;;47.63;28.23;;;;;;;18.27;92.23;100714.84;10445174;28;20040;-75
2023/07/10 05:14:18;;;;;;;55.20;31.10;;;;;;;18.38;92.24;100710.94;10440750;28;20045;-75
2023/07/10 05:19:21;;;;;;;52.53;33.10;;;;;;;18.24;93.40;100708.88;10437109;28;20076;-75
2023/07/10 05:24:24;;;;;;;47.83;31.08;;;;;;;18.34;91.79;100712.28;10439852;28;20041;-75
2023/07/10 05:29:28;;;;;;;43.33;29.48;;;;;;;18.36;91.20;100719.25;10444202;28;20099;-75
2023/07/10 05:34:31;;;;;;;42.90;27.23;;;;;;;18.45;90.73;100730.16;10434909;28;20499;-75
2023/07/10 05:39:34;;;;;;;31.55;18.40;;;;;;;18.01;93.02;100736.66;10431211;28;20048;-75
2023/07/10 05:44:38;;;;;;;42.03;29.80;;;;;;;18.34;92.86;100750.38;10442068;28;20522;-75
2023/07/10 05:49:41;;;;;;;46.42;29.60;;;;;;;17.92;94.04;100757.50;10437146;28;20522;-75
2023/07/10 05:54:43;;;;;;;58.22;31.20;;;;;;;18.57;91.64;100761.47;10441598;28;20049;-75
2023/07/10 05:59:48;;;;;;;47.80;29.50;;;;;;;18.45;91.55;100788.13;10442143;28;20037;-75
2023/07/10 06:04:50;;;;;;;48.67;30.42;;;;;;;18.44;91.27;100791.88;10446672;28;20038;-75
2023/07/10 06:09:53;;;;;;;52.50;32.10;;;;;;;18.42;91.32;100793.91;10453969;28;20052;-75
2023/07/10 06:14:58;;;;;;;49.92;31.55;;;;;;;18.78;89.55;100797.22;10451529;28;20037;-76
2023/07/10 06:20:00;;;;;;;52.50;32.55;;;;;;;18.80;90.93;100806.09;10455193;28;20033;-75
2023/07/10 06:25:04;;;;;;;50.58;31.65;;;;;;;18.87;90.82;100814.44;10449624;28;20040;-74
2023/07/10 06:30:09;;;;;;;46.90;30.98;;;;;;;18.81;89.41;100809.66;10447990;28;20053;-74
2023/07/10 06:35:13;;;;;;;42.28;27.92;;;;;;;18.92;87.65;100809.31;10452111;28;20116;-75
2023/07/10 06:40:17;;;;;;;36.53;25.25;;;;;;;18.65;88.08;100794.13;10451807;28;20408;-75
2023/07/10 06:45:21;;;;;;;33.03;21.35;;;;;;;19.03;84.85;100813.59;10453428;28;20045;-75
2023/07/10 06:50:24;;;;;;;29.95;21.13;;;;;;;19.74;83.12;100813.88;10449020;28;20064;-75
2023/07/10 06:55:27;;;;;;;29.85;19.42;;;;;;;19.64;81.67;100812.22;10441890;28;20051;-75
2023/07/10 07:00:31;;;;;;;25.52;17.90;;;;;;;19.68;82.58;100818.16;10441943;28;20040;-75
2023/07/10 07:05:34;;;;;;;33.20;17.90;;;;;;;19.13;83.88;100824.31;10439764;28;20064;-75
2023/07/10 07:10:41;;;;;;;23.40;15.27;;;;;;;19.15;83.93;100825.00;10446825;28;20045;-75
2023/07/10 07:15:45;;;;;;;22.40;15.13;;;;;;;19.43;82.60;100842.69;10445288;28;20527;-74
2023/07/10 07:20:49;;;;;;;21.98;14.38;;;;;;;19.31;80.63;100838.63;10429234;28;20037;-75
2023/07/10 07:25:54;;;;;;;21.15;12.93;;;;;;;19.96;79.93;100842.28;10403764;28;20041;-76
2023/07/10 07:31:06;;;;;;;15.73;13.10;;;;;;;20.11;78.83;100846.00;10422898;28;20099;-75
2023/07/10 07:36:09;;;;;;;18.70;13.93;;;;;;;20.44;78.35;100841.28;10421625;28;20064;-75
2023/07/10 07:41:12;;;;;;;14.20;11.00;;;;;;;20.03;77.62;100852.31;10413652;28;20159;-75
2023/07/10 07:46:16;;;;;;;15.63;9.57;;;;;;;19.74;77.05;100841.16;10392268;28;20030;-75
2023/07/10 07:51:19;;;;;;;14.25;8.93;;;;;;;19.85;76.81;100840.78;10397386;28;20052;-75
2023/07/10 07:56:22;;;;;;;14.43;8.55;;;;;;;19.74;76.03;100849.31;10401409;28;20420;-75
2023/07/10 08:01:26;;;;;;;12.93;8.63;;;;;;;19.56;76.93;100847.66;10400833;28;20511;-75
2023/07/10 08:06:31;;;;;;;16.88;8.95;;;;;;;19.81;77.69;100850.34;10392333;28;20393;-75
2023/07/10 08:11:34;;;;;;;18.65;13.32;;;;;;;19.50;76.66;100856.50;10405812;28;20041;-75
2023/07/10 08:16:38;;;;;;;18.42;13.70;;;;;;;20.25;75.46;100856.16;10403420;28;20056;-75
2023/07/10 08:21:41;;;;;;;17.02;14.32;;;;;;;21.03;74.37;100857.13;10440764;28;20045;-74
2023/07/10 08:26:44;;;;;;;13.95;10.35;;;;;;;21.97;69.60;100865.91;10443039;28;20045;-74
2023/07/10 08:31:48;;;;;;;15.02;11.23;;;;;;;21.17;69.08;100871.91;10443836;28;20080;-74
2023/07/10 08:36:52;;;;;;;14.45;11.68;;;;;;;21.53;69.58;100872.13;10442719;28;20049;-74
2023/07/10 08:41:59;;;;;;;13.23;9.38;;;;;;;21.55;66.21;100875.50;10441505;28;20045;-75
2023/07/10 08:47:12;;;;;;;9.25;8.35;;;;;;;20.61;68.11;100877.53;10441556;28;20148;-75
2023/07/10 08:52:22;;;;;;;9.23;7.32;;;;;;;21.00;66.39;100882.91;10441233;28;20044;-76
2023/07/10 08:57:32;;;;;;;6.70;5.25;;;;;;;20.82;66.43;100887.81;10437903;28;20524;-75
2023/07/10 09:02:42;;;;;;;8.25;4.70;;;;;;;21.32;64.37;100889.22;10440983;28;20103;-75
2023/07/10 09:07:46;;;;;;;5.32;4.75;;;;;;;21.13;65.75;100876.88;10438287;28;20060;-74
2023/07/10 09:12:52;;;;;;;7.75;4.30;;;;;;;21.96;63.46;100874.28;10438904;28;20697;-75
2023/07/10 09:18:05;;;;;;;6.88;4.35;;;;;;;22.26;62.55;100869.69;10440457;28;20499;-75
2023/07/10 09:23:21;;;;;;;5.82;4.28;;;;;;;22.48;60.89;100867.91;10445011;28;20115;-75
2023/07/10 09:28:25;;;;;;;8.35;4.50;;;;;;;23.56;58.59;100866.09;10450246;28;20055;-75
2023/07/10 09:33:42;;;;;;;5.72;4.38;;;;;;;23.54;58.64;100870.94;10441492;28;20073;-75
2023/07/10 09:38:46;;;;;;;3.92;3.50;;;;;;;22.89;55.76;100867.31;10446389;28;20033;-75
2023/07/10 09:43:51;;;;;;;5.47;3.75;;;;;;;24.54;55.60;100869.72;10441763;28;20045;-75
2023/07/10 09:48:57;;;;;;;6.22;3.10;;;;;;;23.62;53.87;100882.59;10449242;28;20045;-75
2023/07/10 09:54:06;;;;;;;5.53;2.95;;;;;;;22.55;55.96;100872.41;10447605;28;20095;-75
2023/07/10 09:59:20;;;;;;;6.72;3.70;;;;;;;23.37;56.80;100884.94;10442794;28;20044;-75
2023/07/10 10:04:27;;;;;;;5.78;3.38;;;;;;;23.31;55.17;100873.88;10449113;28;20029;-75
2023/07/10 10:09:30;;;;;;;4.65;3.88;;;;;;;23.73;55.19;100888.59;10449094;28;20041;-76
2023/07/10 10:14:43;;;;;;;4.28;3.20;;;;;;;24.92;51.79;100883.78;10457129;28;20047;-75
2023/07/10 10:19:52;;;;;;;8.73;3.38;;;;;;;24.60;51.84;100884.50;10440059;28;20041;-75
2023/07/10 10:24:55;;;;;;;4.80;3.00;;;;;;;24.52;51.51;100886.41;10442797;28;20041;-75
2023/07/10 10:30:16;;;;;;;5.88;2.08;;;;;;;24.44;50.04;100880.25;10441624;28;20052;-75
2023/07/10 10:35:27;;;;;;;4.22;2.47;;;;;;;23.59;49.93;100884.91;10444290;28;20052;-75
2023/07/10 10:40:40;;;;;;;5.18;2.20;;;;;;;23.61;49.75;100889.16;10434535;28;20500;-75
2023/07/10 10:45:48;;;;;;;7.68;2.47;;;;;;;23.76;51.35;100896.44;10450703;28;20049;-75
2023/07/10 10:51:03;;;;;;;3.10;2.70;;;;;;;24.32;50.19;100885.41;10457040;28;20089;-75
2023/07/10 10:56:20;;;;;;;3.42;1.88;;;;;;;24.80;47.75;100890.94;10455942;28;20044;-74
2023/07/10 11:01:33;;;;;;;4.80;1.70;;;;;;;24.47;48.54;100896.31;10446139;28;20037;-74
2023/07/10 11:06:47;;;;;;;4.00;2.17;;;;;;;25.80;45.75;100891.97;10451497;28;20051;-75
2023/07/10 11:11:51;;;;;;;3.03;2.00;;;;;;;25.57;45.00;100895.13;10455558;28;20047;-74
2023/07/10 11:16:55;;;;;;;2.15;1.63;;;;;;;26.72;43.78;100895.56;10453616;28;20559;-75
2023/07/10 11:22:11;;;;;;;3.22;1.98;;;;;;;25.73;44.77;100898.56;10439727;28;20041;-75
2023/07/10 11:27:22;;;;;;;3.00;1.90;;;;;;;25.76;45.47;100890.72;10441251;28;20044;-75
2023/07/10 11:32:26;;;;;;;5.15;2.38;;;;;;;25.69;45.51;100892.59;10444501;28;20041;-75
2023/07/10 11:38:08;;;;;;;6.75;2.22;;;;;;;26.60;43.96;100897.28;10440139;28;20041;-75
2023/07/10 11:43:55;;;;;;;2.53;2.05;;;;;;;26.14;45.48;100879.00;10442819;28;20041;-75
2023/07/10 11:49:17;;;;;;;6.72;2.28;;;;;;;26.41;42.95;100878.94;10439144;28;20114;-74
2023/07/10 11:54:59;;;;;;;3.10;1.40;;;;;;;26.61;43.07;100870.63;10449649;28;20061;-74
2023/07/10 12:00:06;;;;;;;3.13;1.52;;;;;;;26.26;42.20;100869.03;10435041;28;20048;-75
2023/07/10 12:05:22;;;;;;;3.08;1.40;;;;;;;24.30;45.91;100862.84;10453422;28;20393;-74
2023/07/10 12:10:26;;;;;;;2.67;1.80;;;;;;;26.21;44.93;100865.22;10443586;28;20064;-74
2023/07/10 12:15:30;;;;;;;2.70;1.73;;;;;;;26.18;43.10;100874.75;10446938;28;20443;-75
2023/07/10 12:20:36;;;;;;;3.17;2.17;;;;;;;25.96;43.71;100867.81;10479672;28;20048;-74
2023/07/10 12:25:39;;;;;;;3.97;2.10;;;;;;;27.20;40.04;100871.34;10469542;28;20044;-75
2023/07/10 12:30:42;;;;;;;1.95;1.55;;;;;;;27.02;40.68;100866.63;10452054;28;20098;-75
2023/07/10 12:35:46;;;;;;;2.50;1.33;;;;;;;28.38;39.42;100873.25;10464830;28;20068;-75
2023/07/10 12:40:49;;;;;;;2.40;1.50;;;;;;;27.03;40.87;100877.41;10450661;28;20394;-75
2023/07/10 12:45:57;;;;;;;3.53;1.63;;;;;;;26.64;41.75;100876.53;10462010;28;20047;-75
2023/07/10 12:51:03;;;;;;;2.40;1.40;;;;;;;27.52;39.05;100873.03;10464950;28;20527;-75
2023/07/10 12:56:12;;;;;;;2.83;1.38;;;;;;;29.43;36.31;100856.28;10457748;28;20041;-75
2023/07/10 13:01:21;;;;;;;2.08;1.45;;;;;;;28.54;37.73;100866.28;10460080;28;20067;-75
2023/07/10 13:06:26;;;;;;;3.20;1.20;;;;;;;27.13;40.13;100865.91;10453934;28;20041;-75
2023/07/10 13:11:29;;;;;;;1.80;1.17;;;;;;;27.09;40.13;100861.88;10429083;28;20499;-74
2023/07/10 13:16:45;;;;;;;4.10;1.20;;;;;;;30.15;35.80;100858.03;10456949;28;20041;-75
2023/07/10 13:21:49;;;;;;;4.78;1.40;;;;;;;30.37;34.06;100847.13;10444629;28;20075;-75
2023/07/10 13:26:53;;;;;;;1.48;1.15;;;;;;;28.80;35.23;100852.13;10445688;28;20076;-75
2023/07/10 13:31:56;;;;;;;3.38;1.27;;;;;;;28.05;37.03;100864.28;10434819;28;20137;-75
2023/07/10 13:37:00;;;;;;;3.88;1.50;;;;;;;27.27;37.42;100869.41;10450248;28;20037;-74
2023/07/10 13:42:03;;;;;;;1.95;1.20;;;;;;;25.92;38.98;100866.53;10446971;28;20047;-74
2023/07/10 13:47:13;;;;;;;2.85;1.20;;;;;;;26.50;38.68;100875.75;10434599;28;20523;-75
2023/07/10 13:52:20;;;;;;;2.08;1.50;;;;;;;26.91;38.35;100862.66;10436720;28;20118;-74
2023/07/10 13:57:26;;;;;;;3.35;1.48;;;;;;;28.00;37.04;100861.38;10444559;28;20037;-75
2023/07/10 14:02:38;;;;;;;1.65;1.13;;;;;;;29.32;34.35;100859.88;10449345;28;20775;-75
2023/07/10 14:07:43;;;;;;;3.85;1.40;;;;;;;27.93;35.99;100852.28;10438646;28;20041;-75
2023/07/10 14:12:46;;;;;;;3.53;1.30;;;;;;;27.94;35.95;100853.13;10428824;28;20431;-75
2023/07/10 14:17:49;;;;;;;2.30;1.33;;;;;;;28.92;35.65;100847.47;10437033;28;20041;-75
2023/07/10 14:22:53;;;;;;;3.17;1.20;;;;;;;28.04;36.17;100847.94;10442455;28;20059;-74
2023/07/10 14:27:56;;;;;;;3.25;1.65;;;;;;;29.23;35.29;100851.06;10443331;28;20033;-75
2023/07/10 14:32:59;;;;;;;3.42;1.58;;;;;;;30.59;32.58;100837.06;10444431;28;20048;-74
2023/07/10 14:38:17;;;;;;;4.47;1.30;;;;;;;30.04;33.86;100832.00;10447394;28;20049;-75
2023/07/10 14:43:21;;;;;;;2.13;1.20;;;;;;;28.25;34.63;100825.41;10441428;28;20037;-74
2023/07/10 14:48:26;;;;;;;2.70;1.33;;;;;;;28.74;36.03;100830.09;10442366;28;20034;-73
2023/07/10 14:53:31;;;;;;;2.17;1.13;;;;;;;28.79;34.37;100825.53;10433732;28;20044;-74
2023/07/10 14:58:33;;;;;;;3.78;1.30;;;;;;;27.84;36.49;100828.81;10440477;28;20385;-76
2023/07/10 15:03:36;;;;;;;3.50;1.10;;;;;;;29.37;35.38;100824.03;10445076;28;20467;-75
2023/07/10 15:08:41;;;;;;;3.33;1.15;;;;;;;28.23;36.20;100813.72;10439540;28;20036;-74
2023/07/10 15:13:44;;;;;;;3.30;1.60;;;;;;;28.10;37.18;100813.06;10441666;28;20057;-74
2023/07/10 15:18:48;;;;;;;3.65;1.20;;;;;;;29.66;36.66;100808.44;10433657;28;20071;-74
2023/07/10 15:23:52;;;;;;;4.40;1.20;;;;;;;30.74;33.53;100799.66;10441253;28;20065;-74
2023/07/10 15:28:55;;;;;;;2.80;1.30;;;;;;;31.49;33.25;100796.53;10445456;28;20044;-75
2023/07/10 15:33:58;;;;;;;4.65;1.25;;;;;;;32.22;32.29;100791.72;10438618;28;20040;-74
2023/07/10 15:39:09;;;;;;;3.45;1.08;;;;;;;28.88;34.56;100795.63;10441941;28;20042;-74
2023/07/10 15:44:13;;;;;;;2.40;1.40;;;;;;;26.98;36.97;100804.72;10435446;28;20052;-74
2023/07/10 15:49:19;;;;;;;2.60;1.33;;;;;;;28.15;35.85;100793.88;10442699;28;20044;-74
2023/07/10 15:54:24;;;;;;;3.58;1.50;;;;;;;30.06;33.75;100795.72;10445648;28;20091;-74
2023/07/10 15:59:26;;;;;;;3.47;1.02;;;;;;;30.41;33.56;100793.72;10443701;28;20049;-75
2023/07/10 16:04:30;;;;;;;2.40;1.20;;;;;;;29.30;34.69;100785.41;10442736;28;20033;-75
2023/07/10 16:09:35;;;;;;;2.08;1.25;;;;;;;30.33;33.37;100782.19;10435517;28;20504;-74
2023/07/10 16:14:37;;;;;;;3.92;1.30;;;;;;;29.90;32.06;100767.72;10448266;28;20052;-74
2023/07/10 16:19:41;;;;;;;2.03;1.13;;;;;;;29.07;33.12;100771.56;10437921;28;20521;-74
2023/07/10 16:24:46;;;;;;;3.15;1.25;;;;;;;29.23;34.10;100773.63;10384821;28;20040;-74
2023/07/10 16:29:48;;;;;;;3.42;1.58;;;;;;;28.14;35.64;100773.72;10419337;28;20044;-74
2023/07/10 16:34:53;;;;;;;1.52;0.95;;;;;;;28.97;35.50;100774.88;10418072;28;20110;-74
2023/07/10 16:39:58;;;;;;;4.60;1.30;;;;;;;31.82;32.64;100761.50;10414564;28;20504;-74
2023/07/10 16:45:01;;;;;;;3.38;1.17;;;;;;;35.74;27.03;100755.59;10418614;28;20701;-74
2023/07/10 16:50:04;;;;;;;4.85;1.20;;;;;;;37.47;25.18;100750.00;10412653;28;20120;-74
2023/07/10 16:55:15;;;;;;;3.20;1.35;;;;;;;40.69;23.38;100743.66;10394492;28;20052;-74
2023/07/10 17:00:21;;;;;;;2.55;1.10;;;;;;;40.17;22.85;100746.00;10390549;28;20092;-74
2023/07/10 17:05:24;;;;;;;3.88;1.15;;;;;;;39.67;22.66;100743.91;10398510;28;20784;-74
2023/07/10 17:10:28;;;;;;;2.85;1.33;;;;;;;40.22;22.20;100739.44;10397107;28;20829;-74
2023/07/10 17:15:31;;;;;;;2.83;1.10;;;;;;;38.72;23.77;100736.91;10397960;28;20045;-74
2023/07/10 17:20:34;;;;;;;3.08;1.40;;;;;;;40.69;22.14;100726.75;10410163;28;20087;-75
2023/07/10 17:25:38;;;;;;;3.85;1.52;;;;;;;37.93;23.51;100732.69;10415833;28;20045;-74
2023/07/10 17:30:42;;;;;;;4.50;1.42;;;;;;;36.02;26.03;100730.09;10419545;28;20075;-74
2023/07/10 17:35:46;;;;;;;2.83;1.10;;;;;;;38.92;23.77;100725.34;10418131;28;20045;-74
2023/07/10 17:40:51;;;;;;;4.55;1.58;;;;;;;37.62;23.90;100732.19;10418571;28;20041;-74
2023/07/10 17:45:54;;;;;;;2.28;1.20;;;;;;;34.75;27.98;100720.78;10413475;28;20041;-74
2023/07/10 17:51:03;;;;;;;3.45;1.33;;;;;;;36.95;26.20;100715.22;10414544;28;20045;-73
2023/07/10 17:56:08;;;;;;;2.53;1.27;;;;;;;35.82;26.80;100717.00;10417493;28;20548;-74
2023/07/10 18:01:15;;;;;;;4.28;1.10;;;;;;;31.61;31.56;100724.22;10419583;28;20045;-75
2023/07/10 18:06:18;;;;;;;2.22;1.27;;;;;;;29.35;35.37;100732.97;10412529;28;20456;-73
2023/07/10 18:11:29;;;;;;;2.13;1.20;;;;;;;28.14;37.55;100732.28;10412653;28;20053;-74
2023/07/10 18:16:32;;;;;;;3.43;1.50;;;;;;;27.05;38.78;100731.09;10400924;28;20051;-74
2023/07/10 18:21:35;;;;;;;5.00;1.85;;;;;;;26.10;41.00;100729.09;10427996;28;20053;-74
2023/07/10 18:26:40;;;;;;;2.90;1.50;;;;;;;25.85;42.70;100732.56;10437003;28;20045;-74
2023/07/10 18:31:44;;;;;;;5.55;1.33;;;;;;;25.65;43.56;100734.56;10437108;28;20590;-74
2023/07/10 18:36:47;;;;;;;4.65;1.45;;;;;;;25.56;43.23;100727.56;10441724;28;20036;-74
2023/07/10 18:41:55;;;;;;;5.55;1.83;;;;;;;25.44;43.98;100743.88;10446082;28;20079;-74
2023/07/10 18:46:58;;;;;;;2.90;1.50;;;;;;;25.12;45.36;100740.97;10446276;28;20128;-74
2023/07/10 18:52:01;;;;;;;2.95;1.55;;;;;;;24.97;47.12;100745.78;10444640;28;20029;-74
2023/07/10 18:57:07;;;;;;;3.05;1.98;;;;;;;24.78;47.44;100747.44;10443665;28;20052;-74
2023/07/10 19:02:10;;;;;;;3.85;1.60;;;;;;;24.60;46.85;100752.69;10433364;28;20067;-74
2023/07/10 19:07:16;;;;;;;3.45;1.65;;;;;;;24.43;47.35;100755.81;10445270;28;20042;-74
2023/07/10 19:12:20;;;;;;;5.95;1.75;;;;;;;24.30;47.90;100759.38;10452559;28;20045;-74
2023/07/10 19:17:23;;;;;;;2.85;1.42;;;;;;;24.27;48.02;100753.41;10450465;28;20551;-74
2023/07/10 19:22:26;;;;;;;3.72;1.52;;;;;;;24.11;47.80;100751.91;10444642;28;20045;-74
2023/07/10 19:27:31;;;;;;;8.32;1.85;;;;;;;23.92;48.48;100756.25;10443299;28;20113;-74
2023/07/10 19:32:33;;;;;;;5.30;1.52;;;;;;;23.76;49.13;100756.56;10448266;28;20040;-75
2023/07/10 19:37:36;;;;;;;4.35;1.50;;;;;;;23.60;49.22;100747.59;10443358;28;20120;-75
2023/07/10 19:42:40;;;;;;;3.83;1.60;;;;;;;23.38;48.79;100756.94;10443781;28;20128;-74
2023/07/10 19:47:44;;;;;;;3.78;1.83;;;;;;;23.07;49.57;100760.03;10434737;28;21300;-73
2023/07/10 19:52:47;;;;;;;5.10;1.75;;;;;;;23.08;49.09;100745.28;10429772;28;20037;-73
2023/07/10 19:57:51;;;;;;;5.40;1.83;;;;;;;23.13;48.88;100753.81;10435521;28;20029;-73
2023/07/10 20:02:54;;;;;;;5.40;1.77;;;;;;;23.08;48.87;100750.78;10438248;28;20491;-74
2023/07/10 20:07:58;;;;;;;7.13;1.88;;;;;;;22.94;49.12;100749.81;10437918;28;20508;-74
2023/07/10 20:13:05;;;;;;;3.55;1.90;;;;;;;22.77;49.22;100752.81;10439625;28;20045;-74
2023/07/10 20:18:21;;;;;;;3.92;1.50;;;;;;;22.65;49.77;100750.78;10442395;28;20037;-74
2023/07/10 20:23:27;;;;;;;5.47;1.73;;;;;;;22.50;49.88;100753.59;10444765;28;20045;-73
2023/07/10 20:28:36;;;;;;;4.53;1.73;;;;;;;22.44;50.06;100752.47;10449719;28;20033;-74
2023/07/10 20:33:39;;;;;;;4.85;1.85;;;;;;;22.38;50.13;100746.88;10446119;28;20415;-74
2023/07/10 20:38:44;;;;;;;2.05;1.40;;;;;;;22.27;49.94;100732.69;10443219;28;20412;-75
2023/07/10 20:43:48;;;;;;;4.85;1.90;;;;;;;22.23;50.81;100739.56;10446318;28;20052;-73
2023/07/10 20:48:52;;;;;;;4.65;1.75;;;;;;;22.03;50.58;100733.03;10448573;28;20033;-75
2023/07/10 20:53:56;;;;;;;4.45;1.67;;;;;;;22.05;51.46;100731.78;10449845;28;20412;-75
2023/07/10 20:59:02;;;;;;;3.28;1.70;;;;;;;21.78;51.28;100729.75;10447405;28;20068;-75
2023/07/10 21:04:05;;;;;;;4.65;1.80;;;;;;;21.63;51.68;100722.34;10441329;28;20492;-74
2023/07/10 21:09:22;;;;;;;3.72;1.80;;;;;;;21.74;51.92;100723.78;10439828;28;20044;-74
2023/07/10 21:14:26;;;;;;;3.22;1.80;;;;;;;21.82;51.76;100722.84;10443949;28;20100;-75
2023/07/10 21:19:29;;;;;;;6.35;2.20;;;;;;;21.77;52.72;100719.84;10435959;28;20510;-75
2023/07/10 21:24:33;;;;;;;5.72;2.38;;;;;;;21.72;53.18;100712.19;10427063;28;20389;-74
2023/07/10 21:29:37;;;;;;;7.65;2.47;;;;;;;21.66;53.51;100719.25;10431785;28;20064;-74
2023/07/10 21:34:40;;;;;;;7.28;2.60;;;;;;;21.63;53.70;100711.41;10431129;28;20060;-74
2023/07/10 21:39:43;;;;;;;4.38;2.47;;;;;;;21.56;54.05;100715.97;10428717;28;20069;-75
2023/07/10 21:44:48;;;;;;;4.38;2.10;;;;;;;21.37;53.68;100719.25;10431833;28;20497;-74
2023/07/10 21:49:50;;;;;;;7.28;2.72;;;;;;;21.23;53.96;100707.28;10428640;28;20038;-75
2023/07/10 21:54:53;;;;;;;5.50;3.00;;;;;;;21.24;54.20;100706.25;10433670;28;20050;-74
2023/07/10 21:59:58;;;;;;;6.75;2.25;;;;;;;21.11;54.16;100704.13;10426893;28;20040;-75
2023/07/10 22:05:01;;;;;;;4.35;2.55;;;;;;;20.91;54.99;100695.59;10429610;28;20045;-75
2023/07/10 22:10:05;;;;;;;6.88;2.40;;;;;;;20.82;55.38;100695.88;10437167;28;20041;-75
2023/07/10 22:15:17;;;;;;;6.07;2.17;;;;;;;20.74;55.89;100704.97;10429241;28;20127;-74
2023/07/10 22:20:21;;;;;;;;;;;;;;;20.62;55.92;100700.97;10430816;28;20057;-74
2023/07/10 22:25:24;;;;;;;11.23;2.75;;;;;;;20.71;55.99;100702.63;10430332;28;19920;-74
2023/07/10 22:30:28;;;;;;;4.95;2.30;;;;;;;20.56;56.85;100697.94;10438965;28;20049;-75
2023/07/10 22:35:31;;;;;;;6.40;2.30;;;;;;;20.60;57.11;100701.16;10438558;28;20049;-74
2023/07/10 22:40:34;;;;;;;3.67;2.33;;;;;;;20.50;57.14;100681.47;10437473;28;20030;-74
2023/07/10 22:45:39;;;;;;;6.72;3.08;;;;;;;20.41;57.93;100688.84;10441772;28;20053;-75
2023/07/10 22:50:43;;;;;;;6.25;2.50;;;;;;;20.32;58.54;100679.88;10441798;28;20047;-75
2023/07/10 22:55:46;;;;;;;6.72;2.65;;;;;;;20.21;58.64;100695.78;10443197;28;20041;-74
2023/07/10 23:00:50;;;;;;;4.05;2.47;;;;;;;20.19;59.03;100689.66;10449603;28;20041;-74
2023/07/10 23:05:53;;;;;;;3.58;2.30;;;;;;;20.08;59.00;100689.03;10446027;28;20056;-74
2023/07/10 23:10:56;;;;;;;5.25;3.00;;;;;;;19.92;59.79;100693.72;10442531;28;20144;-74
2023/07/10 23:16:00;;;;;;;4.30;2.65;;;;;;;19.90;60.33;100691.19;10435760;28;20500;-74